Kezdőlap
METAR-TAF:

METAR-TAF

Repülőterek :

St. Francis, Kansas, Amerikai Egyesült Államok

földrajzi szélesség: 39-45-40N, földrajzi hosszúság: 101-47-45W, magasság: 1040 m

Jelenlegi meteorológiai megfigyelések

A jelentés 27 perccel ezelõtt készült, 21:55 UTC
Nyugat-északnyugati szél 16 kt széllökések: 22 kt
Hőmérséklet 26°C
Páratartalom 20%
Légköri nyomás 1010 hPa
Látótávolság: 16.1 km
Szórványos felhőzet 11000 lábon

METAR: KSYF 262155Z AUTO 30016G22KT 10SM SCT110 26/01 A2983 RMK AO2

Idő: 17:22 (22:22 UTC)


TAF: hiányzik

Meteorológiai megfigyelések és előrejelzések több, mint 4000 repülőtéren (METAR és TAF jelentéseket).

A térképen piros és sárga pontok jelzik az elérhető meteorológiai állomásokat.

Mozgassa az egeret a pont fölött, hogy megjelenjen az állomás neve.

Azután kattintson az időjárási megfigyelések és előrejelzések megtekintéséhez.

A térkép megváltoztatása: kattintson a fekete keresztel jelölt zöld gombra ráközelítéshez, a vonallal jelölt zöld gombra távolításhoz, vagy a zöld nyilakra a szomszédos térképek eléréséhez.


METAR-TAF: